Aeroporto :
LOGIN :

Iscrizione | Disclaimer

   EN    FR    IT 

 










Sommario :    VFR   VFR Marginale   IFR   IFR Intensivo   IFR Molto Intensivo
Visibilità : 
Base nubi : 
>= 8 km
>= 3000ft
5 / 8 km
1000 / 3000 ft
1500m / 5 km
500 / 1000 ft
800 / 1500m
200 / 500 ft
< 800m
< 200 ft
Simboli :   Temporali  Nebbia  Neve Forte  Precipitazioni Forti  Vento > 20 kt
SIGMETs :   Varie  Temporali  Ghiacco  Turbolenza  Onda orograficha  Ceneri Vulcaniche






- Altitudine del aeroporto : 286 ft
- Codice IATA : FFD


EGVA - RAF Fairford

ULTIMO METAR :
  • 231456Z AUTO 31016G24KT 9999 SCT041 BKN050 10/02 A3008 RMK AO2 SLP190 T01020023 52045 $

METARs OBSOLETI :
  • 231441Z AUTO 31014G21KT 9999 BKN041 BKN050 10/03 A3007 RMK AO2 SLP187 $
  • 231411Z AUTO 31012G21KT 9999 FEW028 SCT037 11/04 A3006 RMK AO2 PRESRR SLP184 $
  • 231356Z AUTO 31016G23KT 9999 SCT030 BKN038 11/05 A3004 RMK AO2 PK WND 30028/12 SLP177 T01130054 $
  • 231336Z AUTO 30016G27KT 9999 SCT034 BKN047 11/05 A3003 RMK AO2 SLP174 $
  • 231321Z AUTO 29015G28KT 9999 SCT043 11/05 A3002 RMK AO2 SLP170 $
  • 231256Z AUTO 31021G24KT 9999 BKN034 BKN045 12/06 A2999 RMK AO2 PK WND 29027/37 SLP160 T01190062 $

Previsioni scadute.



MetMap, La meteo Aeronautica in un colpo d'occhio ! - Copyright ORBIFLY Dicembre 2007 - Disclaimer

ORBIFLY MET'MAP TEAM :

Programmazione e sviluppo : Alexandra Zaïnal
Concezione : Baudouin d'Aumeries
Aiuto per la programmazione : Marc-Olivier Méhu
Supporto tecnico e logistico : Manuel Goepfert
Aiuto per la traduzione : Arnaldo La Scala

Contatto : metmap@orbifly.com




FONTI E CREDITI :

   NOAA